WJA1530 CYEG-KMSP
Flight info
| Callsign | WJA1530 |
|---|---|
| Flight time | N/A |
| Altitude | 37000 |
| Route | OMROD DCT IGVUX DCT FUDGY DCT YMJ DCT TTAIL DCT WINDD BAINY4 |
| Aircraft | B38M/M-SDE1FGHILORVWXY/HB1 |
Departure
| Time | 2026-04-27 18:34 |
|---|---|
| Airport | Edmonton International Airport (CYEG) |
Arrival
| Time | N/A |
|---|---|
| Airport | Minneapolis–Saint Paul International Airport / Wold–Chamberlain Field (KMSP) |
| Time | Latitude | Longitude | Altitude | Speed | Heading |
|---|---|---|---|---|---|
| 2026-04-27 18:10 | 53.30390 | -113.57716 | 2387 ft | 0 kts | 280° |
| 2026-04-27 18:19 | 53.30389 | -113.57707 | 2388 ft | 2 kts | 282° |
| 2026-04-27 18:20 | 53.30384 | -113.57675 | 2387 ft | 3 kts | 290° |
| 2026-04-27 18:20 | 53.30372 | -113.57636 | 2389 ft | 3 kts | 306° |
| 2026-04-27 18:20 | 53.30363 | -113.57618 | 2394 ft | 3 kts | 315° |
| 2026-04-27 18:20 | 53.30348 | -113.57597 | 2387 ft | 3 kts | 327° |
| 2026-04-27 18:21 | 53.30330 | -113.57580 | 2392 ft | 3 kts | 334° |
| 2026-04-27 18:21 | 53.30313 | -113.57565 | 2388 ft | 3 kts | 324° |
| 2026-04-27 18:21 | 53.30307 | -113.57557 | 2389 ft | 0 kts | 315° |
| 2026-04-27 18:25 | 53.30307 | -113.57564 | 2390 ft | 3 kts | 282° |
| 2026-04-27 18:25 | 53.30290 | -113.57668 | 2387 ft | 15 kts | 238° |
| 2026-04-27 18:25 | 53.30205 | -113.57825 | 2387 ft | 20 kts | 223° |
| 2026-04-27 18:25 | 53.30183 | -113.57981 | 2389 ft | 15 kts | 306° |
| 2026-04-27 18:26 | 53.30258 | -113.58104 | 2389 ft | 16 kts | 316° |
| 2026-04-27 18:26 | 53.30325 | -113.58226 | 2388 ft | 11 kts | 297° |
| 2026-04-27 18:26 | 53.30297 | -113.58338 | 2390 ft | 12 kts | 226° |
| 2026-04-27 18:26 | 53.30251 | -113.58449 | 2386 ft | 12 kts | 277° |
| 2026-04-27 18:27 | 53.30311 | -113.58566 | 2389 ft | 17 kts | 314° |
| 2026-04-27 18:27 | 53.30405 | -113.58725 | 2387 ft | 20 kts | 315° |
| 2026-04-27 18:27 | 53.30508 | -113.58892 | 2387 ft | 21 kts | 314° |
| 2026-04-27 18:27 | 53.30613 | -113.59070 | 2388 ft | 22 kts | 314° |
| 2026-04-27 18:28 | 53.30720 | -113.59250 | 2390 ft | 19 kts | 315° |
| 2026-04-27 18:28 | 53.30818 | -113.59282 | 2386 ft | 16 kts | 32° |
| 2026-04-27 18:28 | 53.30917 | -113.59180 | 2386 ft | 20 kts | 38° |
| 2026-04-27 18:28 | 53.31044 | -113.59027 | 2388 ft | 24 kts | 36° |
| 2026-04-27 18:29 | 53.31182 | -113.58864 | 2389 ft | 25 kts | 34° |
| 2026-04-27 18:29 | 53.31325 | -113.58697 | 2391 ft | 25 kts | 35° |
| 2026-04-27 18:29 | 53.31471 | -113.58528 | 2390 ft | 26 kts | 35° |
| 2026-04-27 18:29 | 53.31621 | -113.58355 | 2386 ft | 27 kts | 36° |
| 2026-04-27 18:30 | 53.31773 | -113.58174 | 2386 ft | 27 kts | 35° |
| 2026-04-27 18:30 | 53.31930 | -113.57996 | 2390 ft | 28 kts | 35° |
| 2026-04-27 18:30 | 53.32088 | -113.57809 | 2390 ft | 28 kts | 34° |
| 2026-04-27 18:30 | 53.32249 | -113.57620 | 2390 ft | 28 kts | 35° |
| 2026-04-27 18:31 | 53.32413 | -113.57429 | 2387 ft | 29 kts | 34° |
| 2026-04-27 18:31 | 53.32579 | -113.57234 | 2389 ft | 29 kts | 34° |
| 2026-04-27 18:31 | 53.32748 | -113.57037 | 2387 ft | 30 kts | 35° |
| 2026-04-27 18:31 | 53.32920 | -113.56837 | 2387 ft | 30 kts | 34° |
| 2026-04-27 18:32 | 53.33091 | -113.56636 | 2387 ft | 28 kts | 35° |
| 2026-04-27 18:32 | 53.33199 | -113.56538 | 2387 ft | 14 kts | 352° |
| 2026-04-27 18:32 | 53.33272 | -113.56655 | 2385 ft | 16 kts | 305° |
| 2026-04-27 18:32 | 53.33285 | -113.56823 | 2386 ft | 16 kts | 219° |
| 2026-04-27 18:33 | 53.33172 | -113.56956 | 2384 ft | 34 kts | 215° |
| 2026-04-27 18:33 | 53.32763 | -113.57434 | 2386 ft | 107 kts | 215° |
| 2026-04-27 18:33 | 53.31981 | -113.58346 | 2416 ft | 161 kts | 215° |
| 2026-04-27 18:33 | 53.31024 | -113.59537 | 2861 ft | 178 kts | 212° |
| 2026-04-27 18:34 | 53.30009 | -113.60655 | 3971 ft | 170 kts | 212° |
| 2026-04-27 18:34 | 53.29020 | -113.61787 | 4702 ft | 180 kts | 212° |
| 2026-04-27 18:34 | 53.27945 | -113.63029 | 5097 ft | 200 kts | 211° |
| 2026-04-27 18:34 | 53.26529 | -113.63766 | 5321 ft | 231 kts | 178° |
| 2026-04-27 18:35 | 53.24972 | -113.62989 | 5893 ft | 247 kts | 148° |
| 2026-04-27 18:35 | 53.23747 | -113.60826 | 6567 ft | 262 kts | 125° |
| 2026-04-27 18:35 | 53.22716 | -113.58360 | 7466 ft | 264 kts | 128° |
| 2026-04-27 18:35 | 53.21614 | -113.55867 | 8313 ft | 269 kts | 128° |
| 2026-04-27 18:36 | 53.20484 | -113.53326 | 9136 ft | 276 kts | 128° |
| 2026-04-27 18:36 | 53.19324 | -113.50738 | 9969 ft | 281 kts | 128° |
| 2026-04-27 18:36 | 53.18133 | -113.48089 | 10561 ft | 294 kts | 128° |
| 2026-04-27 18:36 | 53.16854 | -113.45278 | 10914 ft | 314 kts | 128° |
| 2026-04-27 18:37 | 53.15498 | -113.42302 | 11413 ft | 330 kts | 127° |
| 2026-04-27 18:37 | 53.14097 | -113.39218 | 12075 ft | 336 kts | 127° |
| 2026-04-27 18:37 | 53.12679 | -113.36076 | 12785 ft | 343 kts | 126° |
| 2026-04-27 18:37 | 53.11230 | -113.32873 | 13497 ft | 348 kts | 126° |
| 2026-04-27 18:38 | 53.09767 | -113.29635 | 14231 ft | 353 kts | 126° |
| 2026-04-27 18:38 | 53.08283 | -113.26352 | 14890 ft | 357 kts | 126° |
| 2026-04-27 18:38 | 53.06783 | -113.23039 | 15566 ft | 361 kts | 126° |
| 2026-04-27 18:38 | 53.05262 | -113.19684 | 16260 ft | 365 kts | 126° |
| 2026-04-27 18:39 | 53.03726 | -113.16297 | 16920 ft | 369 kts | 126° |
| 2026-04-27 18:39 | 53.02171 | -113.12875 | 17595 ft | 374 kts | 126° |
| 2026-04-27 18:39 | 53.00574 | -113.09435 | 18226 ft | 379 kts | 130° |
| 2026-04-27 18:39 | 52.98701 | -113.06319 | 18819 ft | 383 kts | 134° |
| 2026-04-27 18:40 | 52.96794 | -113.03214 | 19375 ft | 386 kts | 134° |
| 2026-04-27 18:40 | 52.94866 | -113.00084 | 19910 ft | 389 kts | 134° |
| 2026-04-27 18:40 | 52.92923 | -112.96935 | 20475 ft | 392 kts | 134° |
| 2026-04-27 18:40 | 52.90962 | -112.93761 | 21016 ft | 396 kts | 134° |
| 2026-04-27 18:41 | 52.88985 | -112.90567 | 21546 ft | 399 kts | 134° |
| 2026-04-27 18:41 | 52.86991 | -112.87347 | 22068 ft | 402 kts | 134° |
| 2026-04-27 18:41 | 52.84977 | -112.84102 | 22602 ft | 406 kts | 134° |
| 2026-04-27 18:41 | 52.82947 | -112.80835 | 23115 ft | 409 kts | 134° |
| 2026-04-27 18:42 | 52.80904 | -112.77551 | 23626 ft | 412 kts | 134° |
| 2026-04-27 18:42 | 52.79537 | -112.75355 | 23926 ft | 414 kts | 134° |
| 2026-04-27 18:42 | 52.77144 | -112.70420 | 24489 ft | 412 kts | 114° |
| 2026-04-27 18:42 | 52.76121 | -112.66010 | 24877 ft | 413 kts | 106° |
| 2026-04-27 18:43 | 52.75211 | -112.61497 | 25245 ft | 416 kts | 105° |
| 2026-04-27 18:43 | 52.74314 | -112.56946 | 25659 ft | 418 kts | 105° |
| 2026-04-27 18:43 | 52.73424 | -112.52360 | 26059 ft | 421 kts | 104° |
| 2026-04-27 18:43 | 52.72536 | -112.47747 | 26451 ft | 423 kts | 104° |
| 2026-04-27 18:44 | 52.71642 | -112.43102 | 26840 ft | 426 kts | 104° |
| 2026-04-27 18:44 | 52.70744 | -112.38438 | 27223 ft | 428 kts | 104° |
| 2026-04-27 18:44 | 52.69838 | -112.33747 | 27596 ft | 431 kts | 104° |
| 2026-04-27 18:44 | 52.68926 | -112.29029 | 27969 ft | 433 kts | 104° |
| 2026-04-27 18:45 | 52.68006 | -112.24287 | 28326 ft | 436 kts | 104° |
| 2026-04-27 18:45 | 52.67080 | -112.19520 | 28683 ft | 438 kts | 104° |
| 2026-04-27 18:45 | 52.66146 | -112.14729 | 29035 ft | 440 kts | 104° |
| 2026-04-27 18:45 | 52.65206 | -112.09920 | 29382 ft | 443 kts | 104° |
| 2026-04-27 18:46 | 52.64258 | -112.05080 | 29733 ft | 445 kts | 104° |
| 2026-04-27 18:46 | 52.63303 | -112.00215 | 30027 ft | 449 kts | 104° |
| 2026-04-27 18:46 | 52.62338 | -111.95315 | 30325 ft | 451 kts | 104° |
| 2026-04-27 18:46 | 52.61369 | -111.90401 | 30604 ft | 453 kts | 104° |
| 2026-04-27 18:47 | 52.60390 | -111.85456 | 30873 ft | 455 kts | 104° |
| 2026-04-27 18:47 | 52.59421 | -111.80571 | 31134 ft | 457 kts | 104° |
| 2026-04-27 18:47 | 52.58432 | -111.75595 | 31398 ft | 459 kts | 104° |
| 2026-04-27 18:47 | 52.57437 | -111.70606 | 31652 ft | 461 kts | 104° |
| 2026-04-27 18:48 | 52.56435 | -111.65594 | 31911 ft | 462 kts | 104° |
| 2026-04-27 18:48 | 52.55427 | -111.60563 | 32156 ft | 464 kts | 105° |
| 2026-04-27 18:48 | 52.54412 | -111.55513 | 32408 ft | 466 kts | 105° |
| 2026-04-27 18:48 | 52.53392 | -111.50445 | 32660 ft | 468 kts | 105° |
| 2026-04-27 18:49 | 52.52367 | -111.45372 | 32961 ft | 468 kts | 105° |
| 2026-04-27 18:49 | 52.51341 | -111.40301 | 33380 ft | 467 kts | 105° |
| 2026-04-27 18:49 | 52.50316 | -111.35251 | 33700 ft | 467 kts | 105° |
| 2026-04-27 18:49 | 52.49287 | -111.30195 | 34033 ft | 466 kts | 105° |
| 2026-04-27 18:50 | 52.48258 | -111.25156 | 34336 ft | 466 kts | 105° |
| 2026-04-27 18:50 | 52.47228 | -111.20120 | 34595 ft | 466 kts | 105° |
| 2026-04-27 18:50 | 52.46197 | -111.15094 | 34843 ft | 466 kts | 106° |
| 2026-04-27 18:50 | 52.45163 | -111.10061 | 35088 ft | 466 kts | 106° |
| 2026-04-27 18:51 | 52.44127 | -111.05037 | 35336 ft | 465 kts | 106° |
| 2026-04-27 18:51 | 52.43088 | -111.00009 | 35583 ft | 466 kts | 106° |
| 2026-04-27 18:51 | 52.42049 | -110.94992 | 35820 ft | 466 kts | 106° |
| 2026-04-27 18:51 | 52.41006 | -110.89971 | 36062 ft | 465 kts | 106° |
| 2026-04-27 18:52 | 52.39961 | -110.84952 | 36294 ft | 465 kts | 107° |
| 2026-04-27 18:52 | 52.38915 | -110.79939 | 36519 ft | 465 kts | 107° |
| 2026-04-27 18:52 | 52.37866 | -110.74926 | 36749 ft | 466 kts | 107° |
| 2026-04-27 18:53 | 52.35758 | -110.64892 | 37125 ft | 467 kts | 107° |
| 2026-04-27 18:53 | 52.33638 | -110.54846 | 37206 ft | 467 kts | 108° |
| 2026-04-27 18:54 | 52.31515 | -110.44835 | 37212 ft | 466 kts | 108° |
| 2026-04-27 18:54 | 52.29385 | -110.34844 | 37215 ft | 466 kts | 108° |
| 2026-04-27 18:55 | 52.27244 | -110.24848 | 37216 ft | 466 kts | 108° |
| 2026-04-27 18:55 | 52.25099 | -110.14870 | 37214 ft | 466 kts | 108° |
| 2026-04-27 18:56 | 52.22941 | -110.04875 | 37206 ft | 468 kts | 108° |
| 2026-04-27 18:56 | 52.20047 | -109.95425 | 37242 ft | 468 kts | 122° |
| 2026-04-27 18:57 | 52.16561 | -109.86423 | 37201 ft | 469 kts | 121° |
| 2026-04-27 18:57 | 52.13042 | -109.77448 | 37205 ft | 470 kts | 121° |
| 2026-04-27 18:58 | 52.09513 | -109.68492 | 37216 ft | 470 kts | 122° |
| 2026-04-27 18:58 | 52.05977 | -109.59550 | 37213 ft | 470 kts | 122° |
| 2026-04-27 18:59 | 52.02432 | -109.50617 | 37213 ft | 470 kts | 122° |
| 2026-04-27 18:59 | 51.98905 | -109.41759 | 37216 ft | 470 kts | 122° |
| 2026-04-27 19:00 | 51.95347 | -109.32856 | 37220 ft | 470 kts | 122° |
| 2026-04-27 19:00 | 51.91782 | -109.23965 | 37222 ft | 471 kts | 122° |
| 2026-04-27 19:01 | 51.88210 | -109.15088 | 37224 ft | 471 kts | 122° |
| 2026-04-27 19:01 | 51.84630 | -109.06222 | 37220 ft | 470 kts | 122° |
| 2026-04-27 19:02 | 51.81045 | -108.97373 | 37211 ft | 470 kts | 122° |
| 2026-04-27 19:02 | 51.77452 | -108.88535 | 37210 ft | 470 kts | 122° |
| 2026-04-27 19:03 | 51.74463 | -108.81205 | 37211 ft | 470 kts | 122° |
| 2026-04-27 19:03 | 51.70862 | -108.72403 | 37226 ft | 470 kts | 123° |
| 2026-04-27 19:04 | 51.67255 | -108.63617 | 37226 ft | 470 kts | 123° |
| 2026-04-27 19:04 | 51.63645 | -108.54854 | 37225 ft | 470 kts | 123° |
| 2026-04-27 19:05 | 51.60029 | -108.46105 | 37227 ft | 470 kts | 123° |
| 2026-04-27 19:05 | 51.56404 | -108.37364 | 37223 ft | 470 kts | 123° |
| 2026-04-27 19:06 | 51.52774 | -108.28642 | 37224 ft | 470 kts | 123° |
| 2026-04-27 19:06 | 51.49138 | -108.19934 | 37227 ft | 469 kts | 123° |
| 2026-04-27 19:07 | 51.45500 | -108.11249 | 37227 ft | 470 kts | 123° |
| 2026-04-27 19:07 | 51.41849 | -108.02563 | 37224 ft | 470 kts | 124° |
| 2026-04-27 19:08 | 51.38192 | -107.93892 | 37219 ft | 469 kts | 124° |
| 2026-04-27 19:08 | 51.34537 | -107.85256 | 37227 ft | 469 kts | 124° |
| 2026-04-27 19:09 | 51.30873 | -107.76626 | 37225 ft | 469 kts | 124° |
| 2026-04-27 19:09 | 51.27206 | -107.68019 | 37230 ft | 469 kts | 124° |
| 2026-04-27 19:10 | 51.23556 | -107.59479 | 37229 ft | 469 kts | 124° |
| 2026-04-27 19:10 | 51.19870 | -107.50882 | 37231 ft | 469 kts | 124° |
| 2026-04-27 19:11 | 51.16186 | -107.42321 | 37238 ft | 468 kts | 124° |
| 2026-04-27 19:11 | 51.12498 | -107.33777 | 37230 ft | 468 kts | 124° |
| 2026-04-27 19:12 | 51.08802 | -107.25243 | 37236 ft | 468 kts | 125° |
| 2026-04-27 19:12 | 51.05104 | -107.16730 | 37243 ft | 468 kts | 125° |
| 2026-04-27 19:13 | 51.01393 | -107.08218 | 37238 ft | 468 kts | 125° |
| 2026-04-27 19:13 | 50.97680 | -106.99728 | 37244 ft | 468 kts | 125° |
| 2026-04-27 19:14 | 50.93959 | -106.91248 | 37248 ft | 468 kts | 126° |
| 2026-04-27 19:14 | 50.90231 | -106.82778 | 37247 ft | 468 kts | 126° |
| 2026-04-27 19:15 | 50.86497 | -106.74323 | 37246 ft | 468 kts | 126° |
| 2026-04-27 19:15 | 50.82782 | -106.65938 | 37244 ft | 468 kts | 126° |
| 2026-04-27 19:16 | 50.79039 | -106.57517 | 37247 ft | 468 kts | 126° |
| 2026-04-27 19:16 | 50.75291 | -106.49111 | 37247 ft | 468 kts | 126° |
| 2026-04-27 19:17 | 50.71536 | -106.40717 | 37254 ft | 468 kts | 126° |
| 2026-04-27 19:17 | 50.67774 | -106.32336 | 37251 ft | 468 kts | 126° |
| 2026-04-27 19:18 | 50.64008 | -106.23971 | 37245 ft | 468 kts | 127° |
| 2026-04-27 19:18 | 50.60235 | -106.15617 | 37247 ft | 468 kts | 127° |
| 2026-04-27 19:19 | 50.56455 | -106.07274 | 37250 ft | 468 kts | 127° |
| 2026-04-27 19:19 | 50.52668 | -105.98944 | 37247 ft | 468 kts | 127° |
| 2026-04-27 19:20 | 50.48876 | -105.90622 | 37228 ft | 468 kts | 127° |
| 2026-04-27 19:20 | 50.45088 | -105.82331 | 37210 ft | 467 kts | 127° |
| 2026-04-27 19:21 | 50.41298 | -105.74063 | 37195 ft | 467 kts | 127° |
| 2026-04-27 19:21 | 50.37503 | -105.65810 | 37183 ft | 467 kts | 127° |
| 2026-04-27 19:22 | 50.33703 | -105.57560 | 37183 ft | 467 kts | 126° |
| 2026-04-27 19:22 | 50.30492 | -105.48717 | 37193 ft | 469 kts | 120° |
| 2026-04-27 19:23 | 50.27386 | -105.39777 | 37189 ft | 467 kts | 120° |
| 2026-04-27 19:23 | 50.24282 | -105.30849 | 37209 ft | 467 kts | 121° |
| 2026-04-27 19:24 | 50.21173 | -105.21936 | 37227 ft | 467 kts | 121° |
| 2026-04-27 19:24 | 50.18058 | -105.13037 | 37244 ft | 467 kts | 121° |
| 2026-04-27 19:25 | 50.14936 | -105.04148 | 37252 ft | 467 kts | 121° |
| 2026-04-27 19:25 | 50.11806 | -104.95268 | 37246 ft | 467 kts | 121° |
| 2026-04-27 19:26 | 50.08672 | -104.86405 | 37243 ft | 467 kts | 121° |
| 2026-04-27 19:26 | 50.05552 | -104.77616 | 37244 ft | 467 kts | 121° |
| 2026-04-27 19:27 | 50.02404 | -104.68776 | 37234 ft | 467 kts | 121° |
| 2026-04-27 19:27 | 49.99252 | -104.59955 | 37235 ft | 467 kts | 121° |
| 2026-04-27 19:28 | 49.96092 | -104.51143 | 37212 ft | 467 kts | 122° |
| 2026-04-27 19:28 | 49.92927 | -104.42348 | 37227 ft | 467 kts | 122° |
| 2026-04-27 19:29 | 49.89757 | -104.33567 | 37226 ft | 466 kts | 122° |
| 2026-04-27 19:29 | 49.86580 | -104.24796 | 37216 ft | 466 kts | 122° |
| 2026-04-27 19:30 | 49.83395 | -104.16034 | 37214 ft | 466 kts | 122° |
| 2026-04-27 19:30 | 49.80211 | -104.07304 | 37215 ft | 466 kts | 122° |
| 2026-04-27 19:31 | 49.77019 | -103.98582 | 37202 ft | 465 kts | 122° |
| 2026-04-27 19:31 | 49.73825 | -103.89883 | 37204 ft | 465 kts | 122° |
| 2026-04-27 19:32 | 49.70623 | -103.81192 | 37203 ft | 465 kts | 122° |
| 2026-04-27 19:32 | 49.67414 | -103.72512 | 37202 ft | 465 kts | 122° |
| 2026-04-27 19:33 | 49.64200 | -103.63846 | 37193 ft | 465 kts | 123° |
| 2026-04-27 19:33 | 49.61003 | -103.55257 | 37182 ft | 464 kts | 123° |
| 2026-04-27 19:34 | 49.57789 | -103.46648 | 37194 ft | 463 kts | 123° |
| 2026-04-27 19:34 | 49.54551 | -103.38003 | 37191 ft | 463 kts | 123° |
| 2026-04-27 19:35 | 49.51328 | -103.29426 | 37193 ft | 463 kts | 123° |
| 2026-04-27 19:35 | 49.48119 | -103.20918 | 37192 ft | 463 kts | 123° |
| 2026-04-27 19:36 | 49.44883 | -103.12363 | 37187 ft | 463 kts | 123° |
| 2026-04-27 19:36 | 49.41645 | -103.03832 | 37186 ft | 462 kts | 123° |
| 2026-04-27 19:37 | 49.38405 | -102.95323 | 37189 ft | 462 kts | 123° |
| 2026-04-27 19:37 | 49.35157 | -102.86820 | 37179 ft | 462 kts | 123° |
| 2026-04-27 19:38 | 49.31902 | -102.78329 | 37178 ft | 462 kts | 124° |
| 2026-04-27 19:38 | 49.28643 | -102.69853 | 37168 ft | 462 kts | 124° |
| 2026-04-27 19:39 | 49.25384 | -102.61401 | 37159 ft | 461 kts | 124° |
| 2026-04-27 19:39 | 49.22112 | -102.52946 | 37162 ft | 461 kts | 124° |
| 2026-04-27 19:40 | 49.18838 | -102.44514 | 37140 ft | 461 kts | 124° |
| 2026-04-27 19:40 | 49.15559 | -102.36094 | 37150 ft | 461 kts | 124° |
| 2026-04-27 19:41 | 49.12275 | -102.27688 | 37150 ft | 461 kts | 124° |
| 2026-04-27 19:41 | 49.08983 | -102.19290 | 37129 ft | 461 kts | 124° |
| 2026-04-27 19:42 | 49.05689 | -102.10912 | 37142 ft | 461 kts | 124° |
| 2026-04-27 19:42 | 49.02383 | -102.02532 | 37143 ft | 461 kts | 124° |
| 2026-04-27 19:43 | 48.99076 | -101.94174 | 37134 ft | 461 kts | 125° |
| 2026-04-27 19:43 | 48.95768 | -101.85838 | 37140 ft | 460 kts | 125° |
| 2026-04-27 19:44 | 48.92454 | -101.77516 | 37142 ft | 460 kts | 125° |
| 2026-04-27 19:44 | 48.89137 | -101.69213 | 37140 ft | 459 kts | 125° |
| 2026-04-27 19:45 | 48.85816 | -101.60922 | 37139 ft | 459 kts | 125° |
| 2026-04-27 19:45 | 48.82487 | -101.52641 | 37135 ft | 459 kts | 125° |
| 2026-04-27 19:46 | 48.79719 | -101.45773 | 37132 ft | 459 kts | 125° |
| 2026-04-27 19:46 | 48.76383 | -101.37520 | 37116 ft | 458 kts | 126° |
| 2026-04-27 19:47 | 48.73052 | -101.29304 | 37122 ft | 457 kts | 126° |
| 2026-04-27 19:47 | 48.69720 | -101.21111 | 37123 ft | 457 kts | 126° |
| 2026-04-27 19:48 | 48.66382 | -101.12930 | 37120 ft | 457 kts | 126° |
| 2026-04-27 19:48 | 48.63039 | -101.04759 | 37107 ft | 457 kts | 126° |
| 2026-04-27 19:49 | 48.59689 | -100.96598 | 37096 ft | 457 kts | 126° |
| 2026-04-27 19:49 | 48.56336 | -100.88455 | 37085 ft | 457 kts | 126° |
| 2026-04-27 19:50 | 48.52986 | -100.80343 | 37084 ft | 454 kts | 126° |
| 2026-04-27 19:50 | 48.49636 | -100.72256 | 37086 ft | 454 kts | 126° |
| 2026-04-27 19:51 | 48.46303 | -100.64232 | 37082 ft | 454 kts | 126° |
| 2026-04-27 19:51 | 48.42945 | -100.56174 | 37083 ft | 454 kts | 127° |
| 2026-04-27 19:52 | 48.39581 | -100.48125 | 37081 ft | 454 kts | 127° |
| 2026-04-27 19:52 | 48.36212 | -100.40089 | 37080 ft | 454 kts | 127° |
| 2026-04-27 19:53 | 48.31156 | -100.28072 | 37043 ft | 452 kts | 127° |
| 2026-04-27 19:53 | 48.27789 | -100.20100 | 37050 ft | 452 kts | 127° |
| 2026-04-27 19:54 | 48.24413 | -100.12130 | 37045 ft | 452 kts | 127° |
| 2026-04-27 19:54 | 48.21035 | -100.04180 | 37023 ft | 452 kts | 127° |
| 2026-04-27 19:55 | 48.17652 | -99.96239 | 37041 ft | 452 kts | 127° |
| 2026-04-27 19:55 | 48.14267 | -99.88318 | 37039 ft | 451 kts | 127° |
| 2026-04-27 19:56 | 48.10881 | -99.80416 | 37043 ft | 451 kts | 127° |
| 2026-04-27 19:56 | 48.07488 | -99.72523 | 37050 ft | 451 kts | 127° |
| 2026-04-27 19:57 | 48.04115 | -99.64697 | 37049 ft | 451 kts | 127° |
| 2026-04-27 19:57 | 48.00715 | -99.56834 | 37051 ft | 450 kts | 127° |
| 2026-04-27 19:58 | 47.97315 | -99.48992 | 37044 ft | 450 kts | 127° |
| 2026-04-27 19:58 | 47.93906 | -99.41153 | 37046 ft | 450 kts | 127° |
| 2026-04-27 19:59 | 47.90494 | -99.33328 | 37015 ft | 450 kts | 128° |
| 2026-04-27 19:59 | 47.87076 | -99.25514 | 37030 ft | 450 kts | 128° |
| 2026-04-27 20:00 | 47.83653 | -99.17709 | 37022 ft | 450 kts | 128° |
| 2026-04-27 20:00 | 47.80223 | -99.09911 | 37032 ft | 450 kts | 128° |
| 2026-04-27 20:01 | 47.76792 | -99.02131 | 37017 ft | 450 kts | 128° |
| 2026-04-27 20:01 | 47.73356 | -98.94365 | 37009 ft | 450 kts | 128° |
| 2026-04-27 20:02 | 47.69914 | -98.86606 | 37004 ft | 450 kts | 128° |
| 2026-04-27 20:02 | 47.66472 | -98.78870 | 36990 ft | 447 kts | 128° |
| 2026-04-27 20:03 | 47.63044 | -98.71187 | 36985 ft | 446 kts | 128° |
| 2026-04-27 20:03 | 47.59615 | -98.63522 | 36987 ft | 446 kts | 128° |
| 2026-04-27 20:04 | 47.56180 | -98.55865 | 36979 ft | 446 kts | 128° |
| 2026-04-27 20:04 | 47.52741 | -98.48222 | 36966 ft | 446 kts | 129° |
| 2026-04-27 20:05 | 47.49298 | -98.40591 | 36937 ft | 446 kts | 129° |
| 2026-04-27 20:05 | 47.45853 | -98.32977 | 36930 ft | 445 kts | 129° |
| 2026-04-27 20:06 | 47.42437 | -98.25447 | 36949 ft | 444 kts | 129° |
| 2026-04-27 20:06 | 47.38995 | -98.17880 | 36946 ft | 444 kts | 129° |
| 2026-04-27 20:07 | 47.35547 | -98.10321 | 36944 ft | 444 kts | 129° |
| 2026-04-27 20:07 | 47.32096 | -98.02777 | 36939 ft | 444 kts | 129° |
| 2026-04-27 20:08 | 47.28642 | -97.95246 | 36934 ft | 443 kts | 129° |
| 2026-04-27 20:08 | 47.25189 | -97.87739 | 36917 ft | 442 kts | 129° |
| 2026-04-27 20:09 | 47.21732 | -97.80243 | 36917 ft | 443 kts | 129° |
| 2026-04-27 20:09 | 47.18272 | -97.72761 | 36917 ft | 443 kts | 129° |
| 2026-04-27 20:10 | 47.14804 | -97.65283 | 36912 ft | 442 kts | 129° |
| 2026-04-27 20:10 | 47.11335 | -97.57822 | 36898 ft | 442 kts | 129° |
| 2026-04-27 20:11 | 47.07860 | -97.50367 | 36900 ft | 442 kts | 129° |
| 2026-04-27 20:11 | 47.04406 | -97.42972 | 36896 ft | 442 kts | 129° |
| 2026-04-27 20:12 | 47.01489 | -97.36743 | 36881 ft | 442 kts | 129° |
| 2026-04-27 20:12 | 46.97443 | -97.28124 | 36879 ft | 442 kts | 129° |
| 2026-04-27 20:13 | 46.93960 | -97.20724 | 36855 ft | 442 kts | 129° |
| 2026-04-27 20:13 | 46.90467 | -97.13324 | 36850 ft | 442 kts | 129° |
| 2026-04-27 20:14 | 46.86971 | -97.05936 | 36844 ft | 442 kts | 129° |
| 2026-04-27 20:14 | 46.83470 | -96.98557 | 36837 ft | 442 kts | 129° |
| 2026-04-27 20:15 | 46.79966 | -96.91190 | 36822 ft | 441 kts | 129° |
| 2026-04-27 20:15 | 46.76462 | -96.83843 | 36824 ft | 441 kts | 129° |
| 2026-04-27 20:16 | 46.72952 | -96.76501 | 36828 ft | 442 kts | 129° |
| 2026-04-27 20:16 | 46.69451 | -96.69135 | 36823 ft | 444 kts | 125° |
| 2026-04-27 20:17 | 46.66862 | -96.60896 | 36812 ft | 449 kts | 118° |
| 2026-04-27 20:17 | 46.64788 | -96.53970 | 36836 ft | 449 kts | 118° |
| 2026-04-27 20:18 | 46.61884 | -96.44224 | 36804 ft | 449 kts | 118° |
| 2026-04-27 20:18 | 46.59399 | -96.35902 | 36812 ft | 448 kts | 118° |
| 2026-04-27 20:19 | 46.56910 | -96.27595 | 36806 ft | 448 kts | 118° |
| 2026-04-27 20:19 | 46.54413 | -96.19288 | 36793 ft | 448 kts | 118° |
| 2026-04-27 20:20 | 46.51912 | -96.10999 | 36780 ft | 448 kts | 118° |
| 2026-04-27 20:20 | 46.49421 | -96.02766 | 36770 ft | 448 kts | 118° |
| 2026-04-27 20:21 | 46.46912 | -95.94503 | 36765 ft | 448 kts | 118° |
| 2026-04-27 20:21 | 46.44396 | -95.86244 | 36762 ft | 448 kts | 118° |
| 2026-04-27 20:22 | 46.41875 | -95.77993 | 36742 ft | 448 kts | 118° |
| 2026-04-27 20:22 | 46.39341 | -95.69732 | 36753 ft | 449 kts | 118° |
| 2026-04-27 20:23 | 46.36804 | -95.61483 | 36728 ft | 449 kts | 118° |
| 2026-04-27 20:23 | 46.34254 | -95.53223 | 36746 ft | 450 kts | 118° |
| 2026-04-27 20:24 | 46.31696 | -95.44960 | 36739 ft | 450 kts | 118° |
| 2026-04-27 20:24 | 46.29133 | -95.36710 | 36731 ft | 450 kts | 119° |
| 2026-04-27 20:25 | 46.26562 | -95.28463 | 36724 ft | 450 kts | 119° |
| 2026-04-27 20:25 | 46.23987 | -95.20227 | 36713 ft | 450 kts | 119° |
| 2026-04-27 20:26 | 46.21402 | -95.11987 | 36697 ft | 450 kts | 119° |
| 2026-04-27 20:26 | 46.18817 | -95.03773 | 36642 ft | 445 kts | 119° |
| 2026-04-27 20:27 | 46.17546 | -94.99744 | 36214 ft | 439 kts | 119° |
| 2026-04-27 20:27 | 46.16284 | -94.95748 | 35628 ft | 437 kts | 119° |
| 2026-04-27 20:27 | 46.15028 | -94.91776 | 35065 ft | 434 kts | 119° |
| 2026-04-27 20:27 | 46.13779 | -94.87830 | 34561 ft | 431 kts | 120° |
| 2026-04-27 20:28 | 46.12539 | -94.83919 | 34046 ft | 427 kts | 120° |
| 2026-04-27 20:28 | 46.11306 | -94.80043 | 33492 ft | 424 kts | 120° |
| 2026-04-27 20:28 | 46.10079 | -94.76193 | 32796 ft | 422 kts | 119° |
| 2026-04-27 20:28 | 46.09270 | -94.73652 | 32428 ft | 419 kts | 119° |
| 2026-04-27 20:29 | 46.07657 | -94.68599 | 31810 ft | 411 kts | 119° |
| 2026-04-27 20:29 | 46.06471 | -94.64887 | 31376 ft | 406 kts | 119° |
| 2026-04-27 20:29 | 46.05296 | -94.61215 | 30889 ft | 402 kts | 119° |
| 2026-04-27 20:29 | 46.04130 | -94.57577 | 30410 ft | 398 kts | 119° |
| 2026-04-27 20:30 | 46.02973 | -94.53972 | 29956 ft | 396 kts | 118° |
| 2026-04-27 20:30 | 46.02209 | -94.51594 | 29628 ft | 394 kts | 118° |
| 2026-04-27 20:30 | 46.01062 | -94.48030 | 29131 ft | 391 kts | 118° |
| 2026-04-27 20:30 | 45.99924 | -94.44495 | 28671 ft | 387 kts | 118° |
| 2026-04-27 20:31 | 45.98800 | -94.41011 | 28249 ft | 382 kts | 118° |
| 2026-04-27 20:31 | 45.97685 | -94.37560 | 27817 ft | 378 kts | 118° |
| 2026-04-27 20:31 | 45.96583 | -94.34151 | 27371 ft | 374 kts | 118° |
| 2026-04-27 20:31 | 45.95490 | -94.30777 | 26973 ft | 370 kts | 118° |
| 2026-04-27 20:32 | 45.94407 | -94.27436 | 26579 ft | 367 kts | 118° |
| 2026-04-27 20:32 | 45.93333 | -94.24129 | 26176 ft | 364 kts | 118° |
| 2026-04-27 20:32 | 45.92264 | -94.20840 | 25780 ft | 361 kts | 118° |
| 2026-04-27 20:32 | 45.91205 | -94.17586 | 25386 ft | 359 kts | 118° |
| 2026-04-27 20:33 | 45.90152 | -94.14350 | 25009 ft | 356 kts | 118° |
| 2026-04-27 20:33 | 45.89091 | -94.11140 | 24577 ft | 356 kts | 118° |
| 2026-04-27 20:33 | 45.88030 | -94.07936 | 24191 ft | 355 kts | 118° |
| 2026-04-27 20:33 | 45.86973 | -94.04746 | 23848 ft | 353 kts | 118° |
| 2026-04-27 20:34 | 45.85919 | -94.01568 | 23470 ft | 352 kts | 118° |
| 2026-04-27 20:34 | 45.84868 | -93.98404 | 23001 ft | 353 kts | 118° |
| 2026-04-27 20:34 | 45.83805 | -93.95206 | 22360 ft | 359 kts | 118° |
| 2026-04-27 20:34 | 45.82708 | -93.91910 | 21761 ft | 371 kts | 117° |
| 2026-04-27 20:35 | 45.81593 | -93.88562 | 21214 ft | 374 kts | 117° |
| 2026-04-27 20:35 | 45.80467 | -93.85189 | 20658 ft | 375 kts | 117° |
| 2026-04-27 20:35 | 45.79353 | -93.81854 | 20084 ft | 378 kts | 117° |
| 2026-04-27 20:35 | 45.78198 | -93.78403 | 19471 ft | 380 kts | 117° |
| 2026-04-27 20:36 | 45.77067 | -93.75024 | 18868 ft | 383 kts | 117° |
| 2026-04-27 20:36 | 45.75676 | -93.71789 | 18315 ft | 381 kts | 133° |
| 2026-04-27 20:36 | 45.73651 | -93.69462 | 18108 ft | 369 kts | 152° |
| 2026-04-27 20:36 | 45.71341 | -93.67985 | 17835 ft | 361 kts | 158° |
| 2026-04-27 20:37 | 45.69016 | -93.66646 | 17344 ft | 360 kts | 159° |
| 2026-04-27 20:37 | 45.66681 | -93.65345 | 16865 ft | 359 kts | 159° |
| 2026-04-27 20:37 | 45.64352 | -93.64070 | 16392 ft | 358 kts | 159° |
| 2026-04-27 20:37 | 45.62025 | -93.62814 | 15921 ft | 357 kts | 159° |
| 2026-04-27 20:38 | 45.59699 | -93.61567 | 15448 ft | 357 kts | 159° |
| 2026-04-27 20:38 | 45.57375 | -93.60309 | 14896 ft | 359 kts | 159° |
| 2026-04-27 20:38 | 45.55037 | -93.59037 | 14388 ft | 360 kts | 159° |
| 2026-04-27 20:38 | 45.52703 | -93.57769 | 13975 ft | 358 kts | 159° |
| 2026-04-27 20:39 | 45.50376 | -93.56507 | 13538 ft | 357 kts | 159° |
| 2026-04-27 20:39 | 45.48053 | -93.55249 | 13028 ft | 357 kts | 159° |
| 2026-04-27 20:39 | 45.45729 | -93.53992 | 12520 ft | 357 kts | 159° |
| 2026-04-27 20:39 | 45.43413 | -93.52739 | 12045 ft | 356 kts | 159° |
| 2026-04-27 20:40 | 45.41101 | -93.51491 | 11574 ft | 354 kts | 159° |
| 2026-04-27 20:40 | 45.38802 | -93.50250 | 11105 ft | 353 kts | 159° |
| 2026-04-27 20:40 | 45.36505 | -93.49012 | 10636 ft | 352 kts | 159° |
| 2026-04-27 20:40 | 45.34152 | -93.48101 | 10122 ft | 353 kts | 176° |
| 2026-04-27 20:41 | 45.31702 | -93.48165 | 9635 ft | 352 kts | 182° |
| 2026-04-27 20:41 | 45.29260 | -93.48255 | 9144 ft | 351 kts | 182° |
| 2026-04-27 20:41 | 45.26822 | -93.48336 | 8604 ft | 351 kts | 182° |
| 2026-04-27 20:41 | 45.24394 | -93.48411 | 8153 ft | 348 kts | 182° |
| 2026-04-27 20:42 | 45.21983 | -93.48483 | 7710 ft | 345 kts | 182° |
| 2026-04-27 20:42 | 45.19585 | -93.48553 | 7261 ft | 343 kts | 182° |
| 2026-04-27 20:42 | 45.17214 | -93.48616 | 6990 ft | 336 kts | 182° |
| 2026-04-27 20:42 | 45.14933 | -93.48670 | 7000 ft | 320 kts | 182° |
| 2026-04-27 20:43 | 45.12763 | -93.48722 | 7000 ft | 305 kts | 183° |
| 2026-04-27 20:43 | 45.10694 | -93.48773 | 6997 ft | 290 kts | 183° |
| 2026-04-27 20:43 | 45.08722 | -93.48820 | 6976 ft | 278 kts | 184° |
| 2026-04-27 20:43 | 45.06793 | -93.48568 | 6504 ft | 286 kts | 163° |
| 2026-04-27 20:44 | 45.04993 | -93.47264 | 6010 ft | 294 kts | 153° |
| 2026-04-27 20:44 | 45.03182 | -93.45849 | 5435 ft | 301 kts | 154° |
| 2026-04-27 20:44 | 45.01322 | -93.44420 | 4862 ft | 307 kts | 154° |
| 2026-04-27 20:44 | 44.99422 | -93.42974 | 4266 ft | 313 kts | 154° |
| 2026-04-27 20:45 | 44.97611 | -93.41256 | 3855 ft | 316 kts | 138° |
| 2026-04-27 20:45 | 44.96311 | -93.38773 | 3517 ft | 316 kts | 120° |
| 2026-04-27 20:45 | 44.95290 | -93.36035 | 3114 ft | 315 kts | 121° |
| 2026-04-27 20:45 | 44.94177 | -93.33391 | 2730 ft | 313 kts | 123° |
| 2026-04-27 20:46 | 44.93038 | -93.30773 | 2311 ft | 313 kts | 122° |
| 2026-04-27 20:46 | 44.91907 | -93.28152 | 1905 ft | 313 kts | 123° |
| 2026-04-27 20:46 | 44.90734 | -93.25471 | 2196 ft | 321 kts | 123° |
| 2026-04-27 20:46 | 44.89631 | -93.22908 | 3522 ft | 288 kts | 123° |
| 2026-04-27 20:47 | 44.88634 | -93.20555 | 4389 ft | 283 kts | 123° |
| 2026-04-27 20:47 | 44.87567 | -93.18037 | 3944 ft | 326 kts | 122° |
| 2026-04-27 20:47 | 44.86485 | -93.15108 | 4149 ft | 324 kts | 114° |
| 2026-04-27 20:47 | 44.86111 | -93.12045 | 5237 ft | 313 kts | 86° |
| 2026-04-27 20:48 | 44.86661 | -93.09193 | 6307 ft | 297 kts | 62° |
| 2026-04-27 20:48 | 44.87809 | -93.06774 | 6669 ft | 296 kts | 51° |
| 2026-04-27 20:48 | 44.89079 | -93.04515 | 6858 ft | 294 kts | 50° |
| 2026-04-27 20:48 | 44.90372 | -93.02275 | 6976 ft | 295 kts | 50° |
| 2026-04-27 20:49 | 44.91642 | -93.00148 | 6989 ft | 269 kts | 42° |
| 2026-04-27 20:49 | 44.93147 | -92.98868 | 6986 ft | 246 kts | 12° |